Time;durP1;ratioP1;P1;durP2;ratioP2;P2;SDS_P1;SDS_P2;PMS_P1;PMS_P2;Temp;Humidity;BMP_temperature;BMP_pressure;BME280_temperature;BME280_humidity;BME280_pressure;Samples;Min_cycle;Max_cycle;Signal;HPM_P1;HPM_P2
2022/09/29 00:00:52;;;;;;;10.18;6.18;;;;;;;16.18;100.00;97963.38;5006397;28;20404;-73
2022/09/29 00:03:19;;;;;;;11.43;6.15;;;;;;;16.20;100.00;97966.66;5007651;28;20038;-73
2022/09/29 00:05:50;;;;;;;11.13;5.80;;;;;;;16.10;100.00;97976.94;5007578;28;20498;-73
2022/09/29 00:08:16;;;;;;;14.95;6.63;;;;;;;16.15;100.00;97969.13;5005314;28;20038;-74
2022/09/29 00:10:42;;;;;;;10.32;5.70;;;;;;;16.15;100.00;97971.78;5002484;28;20076;-72
2022/09/29 00:13:07;;;;;;;11.18;5.65;;;;;;;16.06;100.00;97963.25;5005220;28;20042;-73
2022/09/29 00:15:33;;;;;;;12.38;5.85;;;;;;;15.97;100.00;97957.38;5007278;28;20105;-74
2022/09/29 00:17:59;;;;;;;11.07;5.80;;;;;;;15.87;100.00;97957.06;5006536;28;20427;-75
2022/09/29 00:20:24;;;;;;;9.82;6.00;;;;;;;15.78;100.00;97957.53;5001859;28;20442;-74
2022/09/29 00:22:50;;;;;;;10.23;5.35;;;;;;;15.77;100.00;97951.41;5008197;28;20030;-74
2022/09/29 00:25:17;;;;;;;8.23;5.38;;;;;;;15.61;100.00;97954.53;5003449;28;20080;-73
2022/09/29 00:27:43;;;;;;;14.95;5.80;;;;;;;15.57;100.00;97945.38;5003424;28;20466;-73
2022/09/29 00:30:08;;;;;;;7.00;5.10;;;;;;;15.40;100.00;97938.88;4985308;28;20068;-74
2022/09/29 00:32:34;;;;;;;8.55;5.25;;;;;;;15.44;100.00;97924.13;5003749;28;20040;-74
2022/09/29 00:34:59;;;;;;;10.77;5.13;;;;;;;15.49;100.00;97927.00;5006591;28;20026;-73
2022/09/29 00:37:25;;;;;;;8.40;5.53;;;;;;;15.56;100.00;97922.47;4985252;28;20042;-73
2022/09/29 00:39:52;;;;;;;10.98;5.97;;;;;;;15.57;100.00;97924.91;5006656;28;20125;-73
2022/09/29 00:42:18;;;;;;;8.25;5.75;;;;;;;15.57;100.00;97924.09;5006056;28;20137;-73
2022/09/29 00:44:58;;;;;;;11.60;6.15;;;;;;;15.56;100.00;97917.16;5001218;28;20126;-72
2022/09/29 00:47:24;;;;;;;9.57;5.35;;;;;;;15.60;100.00;97923.69;5004525;28;20053;-74
2022/09/29 00:49:58;;;;;;;8.95;5.50;;;;;;;15.64;100.00;97918.75;5004173;28;20030;-74
2022/09/29 00:52:33;;;;;;;15.40;5.88;;;;;;;15.62;100.00;97915.47;5002290;28;20041;-72
2022/09/29 00:55:12;;;;;;;8.95;5.30;;;;;;;15.43;100.00;97911.91;5003653;28;20030;-73
2022/09/29 00:58:21;;;;;;;11.43;6.10;;;;;;;15.33;100.00;97895.59;4998058;28;20058;-73
2022/09/29 01:00:47;;;;;;;10.68;5.82;;;;;;;15.31;100.00;97892.34;5002472;28;20471;-75
2022/09/29 01:03:19;;;;;;;18.05;6.88;;;;;;;15.31;100.00;97898.47;5004693;28;20069;-75
2022/09/29 01:05:56;;;;;;;10.07;6.30;;;;;;;15.38;100.00;97899.22;5005953;28;20022;-74
2022/09/29 01:08:38;;;;;;;10.10;5.25;;;;;;;15.40;100.00;97907.81;4988207;28;20049;-74
2022/09/29 01:11:04;;;;;;;9.35;5.55;;;;;;;15.41;100.00;97903.31;5000092;28;20096;-75
2022/09/29 01:13:32;;;;;;;10.98;5.93;;;;;;;15.38;100.00;97909.84;5004523;28;20510;-74
2022/09/29 01:15:58;;;;;;;8.40;6.18;;;;;;;15.36;100.00;97905.81;5009144;28;20038;-74
2022/09/29 01:18:23;;;;;;;17.30;5.95;;;;;;;15.36;100.00;97905.81;5003052;28;20030;-74
2022/09/29 01:20:58;;;;;;;10.63;6.25;;;;;;;15.36;100.00;97913.78;5002244;28;20042;-74
2022/09/29 01:23:48;;;;;;;9.23;5.38;;;;;;;14.93;100.00;97917.03;5005970;28;20033;-74
2022/09/29 01:26:35;;;;;;;10.07;5.97;;;;;;;14.64;100.00;97914.88;5008455;28;20045;-74
2022/09/29 01:29:41;;;;;;;7.95;6.20;;;;;;;14.75;100.00;97908.91;5000469;28;20566;-74
2022/09/29 01:32:21;;;;;;;9.88;6.18;;;;;;;14.80;100.00;97917.06;4998918;28;20058;-75
2022/09/29 01:35:05;;;;;;;11.85;6.50;;;;;;;14.87;100.00;97912.56;4988690;28;20034;-74
2022/09/29 01:37:41;;;;;;;15.75;5.90;;;;;;;14.81;100.00;97907.25;5004965;28;20528;-75
2022/09/29 01:40:12;;;;;;;15.95;6.18;;;;;;;14.79;100.00;97904.81;5006003;28;20042;-74
2022/09/29 01:42:56;;;;;;;10.65;5.57;;;;;;;14.64;100.00;97906.91;5005723;28;20046;-74
2022/09/29 01:45:22;;;;;;;9.80;5.35;;;;;;;14.60;100.00;97911.00;5001001;28;20510;-74
2022/09/29 01:47:53;;;;;;;12.02;6.32;;;;;;;14.55;100.00;97914.25;5004758;28;20042;-74
2022/09/29 01:50:30;;;;;;;7.07;5.75;;;;;;;14.55;100.00;97919.56;5006089;28;20034;-74
2022/09/29 01:53:01;;;;;;;11.32;6.10;;;;;;;14.46;100.00;97906.75;5008663;28;20038;-74
2022/09/29 01:55:30;;;;;;;10.43;5.57;;;;;;;14.51;100.00;97907.75;5008010;28;20092;-74
2022/09/29 01:58:04;;;;;;;8.18;6.35;;;;;;;14.54;100.00;97904.69;5001199;28;20119;-74
2022/09/29 02:00:39;;;;;;;9.15;6.50;;;;;;;14.33;100.00;97908.38;5004782;28;20061;-74
2022/09/29 02:03:28;;;;;;;9.13;6.53;;;;;;;14.34;100.00;97910.00;4989526;28;20030;-75
2022/09/29 02:05:57;;;;;;;9.82;6.30;;;;;;;14.39;100.00;97900.63;5005315;28;20065;-75
2022/09/29 02:08:31;;;;;;;10.60;6.43;;;;;;;14.46;100.00;97904.09;4978605;28;20054;-74
2022/09/29 02:11:03;;;;;;;7.45;6.07;;;;;;;14.51;100.00;97917.53;5001211;28;20029;-74
2022/09/29 02:13:38;;;;;;;10.18;6.60;;;;;;;14.39;100.00;97904.09;5005839;28;20478;-73
2022/09/29 02:16:09;;;;;;;12.73;7.32;;;;;;;14.30;100.00;97900.84;5003895;28;20064;-74
2022/09/29 02:18:45;;;;;;;8.00;6.50;;;;;;;14.26;100.00;97902.25;4999065;28;20085;-74
2022/09/29 02:21:10;;;;;;;14.50;7.03;;;;;;;14.14;100.00;97905.72;5003184;28;20041;-74
2022/09/29 02:23:35;;;;;;;9.93;6.40;;;;;;;14.23;100.00;97907.97;5003036;28;20475;-74
2022/09/29 02:26:01;;;;;;;11.85;6.50;;;;;;;14.35;100.00;97916.94;5004178;28;20041;-74
2022/09/29 02:28:27;;;;;;;11.20;6.80;;;;;;;14.45;100.00;97918.38;5003529;28;20121;-74
2022/09/29 02:30:53;;;;;;;10.52;6.45;;;;;;;14.51;100.00;97899.78;5001695;28;20034;-74
2022/09/29 02:33:23;;;;;;;9.32;6.80;;;;;;;14.42;100.00;97908.19;5000797;28;20034;-74
2022/09/29 02:36:36;;;;;;;9.05;6.93;;;;;;;14.43;100.00;97904.53;5001846;28;20125;-73
2022/09/29 02:39:26;;;;;;;13.23;7.22;;;;;;;14.30;100.00;97906.13;4929634;29;20055;-74
2022/09/29 02:42:19;;;;;;;9.68;6.28;;;;;;;14.39;100.00;97892.66;4928664;29;20055;-73
2022/09/29 02:45:12;;;;;;;9.50;6.43;;;;;;;14.39;100.00;97897.97;4928315;29;20043;-73
2022/09/29 02:47:57;;;;;;;10.60;7.47;;;;;;;14.42;100.00;97894.91;4929974;29;20051;-74
2022/09/29 02:51:07;;;;;;;13.18;7.47;;;;;;;14.40;100.00;97894.31;4930210;29;20059;-73
2022/09/29 02:53:52;;;;;;;8.50;7.60;;;;;;;14.23;100.00;97889.41;4900949;29;20127;-73
2022/09/29 02:56:40;;;;;;;15.15;7.78;;;;;;;14.22;100.00;97877.16;4930526;29;20119;-72
2022/09/29 02:59:14;;;;;;;11.13;6.85;;;;;;;14.22;100.00;97871.84;4926802;29;20062;-73
2022/09/29 03:01:51;;;;;;;12.60;8.48;;;;;;;14.01;100.00;97864.13;4930286;29;20149;-74
2022/09/29 03:04:17;;;;;;;11.27;8.00;;;;;;;14.12;100.00;97860.03;4929997;29;20047;-74
2022/09/29 03:06:43;;;;;;;9.70;6.53;;;;;;;14.16;100.00;97854.09;4929767;29;20032;-74
2022/09/29 03:09:08;;;;;;;11.68;6.63;;;;;;;14.20;100.00;97850.00;4949959;28;20045;-73
2022/09/29 03:11:34;;;;;;;10.38;6.80;;;;;;;14.24;100.00;97853.91;5000553;28;20038;-74
2022/09/29 03:13:59;;;;;;;11.00;8.07;;;;;;;14.10;100.00;97862.88;4987277;28;20040;-74
2022/09/29 03:16:25;;;;;;;10.85;7.53;;;;;;;13.94;100.00;97863.31;5004990;28;20041;-73
2022/09/29 03:18:51;;;;;;;13.35;7.78;;;;;;;13.65;100.00;97869.03;5004089;28;20038;-73
2022/09/29 03:21:16;;;;;;;10.27;7.82;;;;;;;13.55;100.00;97858.81;4985779;28;20477;-75
2022/09/29 03:23:42;;;;;;;8.75;7.57;;;;;;;13.57;100.00;97851.47;4998390;28;20496;-75
2022/09/29 03:26:07;;;;;;;14.40;7.68;;;;;;;13.53;100.00;97848.44;5004271;28;20041;-74
2022/09/29 03:28:34;;;;;;;9.35;7.50;;;;;;;13.57;100.00;97861.25;5002773;28;20033;-75
2022/09/29 03:31:05;;;;;;;12.20;7.95;;;;;;;13.47;100.00;97866.97;5002830;28;20041;-75
2022/09/29 03:33:31;;;;;;;17.25;8.38;;;;;;;13.60;100.00;97874.13;4999625;28;20029;-75
2022/09/29 03:35:56;;;;;;;15.80;8.48;;;;;;;13.63;100.00;97881.66;4999076;28;20104;-74
2022/09/29 03:38:22;;;;;;;11.05;8.05;;;;;;;13.67;100.00;97866.97;5003020;28;20101;-73
2022/09/29 03:40:47;;;;;;;12.73;8.60;;;;;;;13.56;100.00;97865.75;5006597;28;20049;-74
2022/09/29 03:43:12;;;;;;;11.40;8.45;;;;;;;13.63;100.00;97860.44;5004441;28;20065;-73
2022/09/29 03:45:47;;;;;;;13.60;8.38;;;;;;;13.61;100.00;97867.81;5006695;28;20122;-73
2022/09/29 03:48:13;;;;;;;9.50;7.80;;;;;;;13.65;100.00;97876.97;5009466;28;20049;-74
2022/09/29 03:50:38;;;;;;;15.35;8.18;;;;;;;13.70;100.00;97871.88;5004219;28;20038;-74
2022/09/29 03:53:03;;;;;;;10.63;7.72;;;;;;;13.76;100.00;97865.75;5003963;28;20050;-74
2022/09/29 03:55:29;;;;;;;15.43;7.57;;;;;;;13.80;100.00;97873.09;5004599;28;20029;-73
2022/09/29 03:57:54;;;;;;;10.45;7.57;;;;;;;13.83;100.00;97879.84;5003086;28;20034;-74
2022/09/29 04:00:20;;;;;;;17.95;8.15;;;;;;;13.90;100.00;97888.63;5003781;28;20110;-74
2022/09/29 04:02:46;;;;;;;14.38;8.38;;;;;;;13.88;100.00;97903.91;5006462;28;20069;-74
2022/09/29 04:05:12;;;;;;;12.18;8.57;;;;;;;13.52;100.00;97897.16;5007384;28;20034;-74
2022/09/29 04:07:37;;;;;;;11.80;7.68;;;;;;;13.52;100.00;97891.03;5006470;28;20038;-73
2022/09/29 04:10:03;;;;;;;11.77;6.75;;;;;;;13.41;100.00;97905.69;5001841;28;20545;-74
2022/09/29 04:12:29;;;;;;;13.05;7.63;;;;;;;13.23;100.00;97908.09;5005751;28;20368;-74
2022/09/29 04:14:55;;;;;;;11.60;7.43;;;;;;;13.29;100.00;97901.16;5007545;28;20022;-74
2022/09/29 04:17:20;;;;;;;10.23;7.35;;;;;;;13.32;100.00;97906.88;5007967;28;20347;-74
2022/09/29 04:19:46;;;;;;;15.27;7.85;;;;;;;13.41;100.00;97902.22;5006806;28;20042;-76
2022/09/29 04:22:14;;;;;;;10.50;7.80;;;;;;;13.21;100.00;97904.81;5006344;28;20141;-74
2022/09/29 04:24:40;;;;;;;11.68;7.78;;;;;;;13.18;100.00;97905.22;5003028;28;20049;-75
2022/09/29 04:27:05;;;;;;;12.18;7.05;;;;;;;13.29;100.00;97907.28;5005959;28;20491;-74
2022/09/29 04:29:31;;;;;;;13.25;7.70;;;;;;;13.37;100.00;97906.28;5001475;28;20072;-74
2022/09/29 04:31:56;;;;;;;9.13;6.68;;;;;;;13.42;100.00;97902.03;5003680;28;20077;-74
2022/09/29 04:34:22;;;;;;;8.85;6.93;;;;;;;13.48;100.00;97906.53;5003568;28;20490;-74
2022/09/29 04:36:47;;;;;;;12.68;8.13;;;;;;;13.48;100.00;97909.19;5000770;28;20049;-74
2022/09/29 04:39:12;;;;;;;15.07;8.15;;;;;;;13.13;100.00;97910.31;5005855;28;20175;-74
2022/09/29 04:41:40;;;;;;;9.40;7.32;;;;;;;12.95;100.00;97923.22;5006607;28;20046;-74
2022/09/29 04:44:05;;;;;;;14.18;8.15;;;;;;;12.73;100.00;97923.31;5005793;28;20430;-74
2022/09/29 04:46:31;;;;;;;14.85;8.23;;;;;;;12.41;100.00;97913.38;5003557;28;20044;-73
2022/09/29 04:48:56;;;;;;;15.77;8.93;;;;;;;12.41;100.00;97923.97;5001814;28;20034;-74
2022/09/29 04:51:22;;;;;;;14.82;9.18;;;;;;;12.41;100.00;97916.03;5005028;28;20224;-72
2022/09/29 04:53:47;;;;;;;11.57;8.60;;;;;;;12.60;100.00;97922.44;5005740;28;20030;-72
2022/09/29 04:56:13;;;;;;;15.60;9.20;;;;;;;12.76;100.00;97921.31;5002529;28;20041;-72
2022/09/29 04:58:38;;;;;;;14.20;9.48;;;;;;;12.92;100.00;97918.31;5002477;28;20080;-72
2022/09/29 05:01:09;;;;;;;14.85;10.25;;;;;;;13.08;100.00;97915.31;5003095;28;20029;-72
2022/09/29 05:03:34;;;;;;;16.98;9.90;;;;;;;13.20;100.00;97905.00;4999518;28;20552;-70
2022/09/29 05:06:00;;;;;;;13.30;10.07;;;;;;;13.26;100.00;97912.97;5006482;28;20030;-73
2022/09/29 05:08:26;;;;;;;19.52;10.05;;;;;;;13.29;100.00;97907.28;5006111;28;20169;-74
2022/09/29 05:10:51;;;;;;;13.00;8.57;;;;;;;13.37;100.00;97915.03;5005936;28;20076;-74
2022/09/29 05:13:16;;;;;;;13.77;9.30;;;;;;;13.43;100.00;97914.22;5005330;28;20126;-74
2022/09/29 05:15:44;;;;;;;14.75;9.20;;;;;;;13.44;100.00;97926.47;5006930;28;20454;-74
2022/09/29 05:18:10;;;;;;;12.70;9.57;;;;;;;13.44;100.00;97926.47;5006840;28;20180;-73
2022/09/29 05:20:35;;;;;;;13.00;9.43;;;;;;;13.42;100.00;97933.81;5003369;28;20046;-74
2022/09/29 05:23:01;;;;;;;12.45;9.20;;;;;;;13.52;100.00;97944.03;5000739;28;20038;-75
2022/09/29 05:25:26;;;;;;;14.48;9.32;;;;;;;13.57;100.00;97946.06;5006861;28;20082;-72
2022/09/29 05:27:52;;;;;;;12.02;9.52;;;;;;;13.57;100.00;97941.59;5003825;28;20043;-73
2022/09/29 05:30:17;;;;;;;12.57;9.05;;;;;;;13.57;100.00;97940.75;5006592;28;20093;-71
2022/09/29 05:32:43;;;;;;;12.75;9.20;;;;;;;13.55;100.00;97940.16;4294776;28;10000815;-71
2022/09/29 05:35:09;;;;;;;13.07;10.20;;;;;;;13.53;100.00;97943.84;5002328;28;20040;-72
2022/09/29 05:37:34;;;;;;;13.90;10.07;;;;;;;13.58;100.00;97960.97;4978721;28;20099;-70
2022/09/29 05:40:00;;;;;;;14.48;9.70;;;;;;;13.58;100.00;97960.97;5002318;28;20038;-72
2022/09/29 05:42:26;;;;;;;17.75;10.43;;;;;;;13.62;100.00;97960.34;4997310;28;20046;-72
2022/09/29 05:44:52;;;;;;;14.50;10.23;;;;;;;13.67;100.00;97959.75;4996121;28;20093;-72
2022/09/29 05:47:18;;;;;;;17.50;10.60;;;;;;;13.68;100.00;97959.53;4994591;28;20030;-70
2022/09/29 05:49:43;;;;;;;15.88;9.98;;;;;;;13.71;100.00;97963.66;4994205;28;20113;-70
2022/09/29 05:52:09;;;;;;;17.45;10.77;;;;;;;13.75;100.00;97959.56;4995383;28;20042;-71
2022/09/29 05:54:35;;;;;;;23.98;10.90;;;;;;;13.71;100.00;97968.94;4994924;28;20081;-72
2022/09/29 05:57:01;;;;;;;13.05;9.18;;;;;;;13.57;100.00;97961.97;4995416;28;20041;-73
2022/09/29 05:59:26;;;;;;;16.27;9.10;;;;;;;13.53;100.00;97967.69;4314382;28;10000717;-72
2022/09/29 06:01:52;;;;;;;14.73;9.02;;;;;;;13.46;100.00;97952.78;5007771;28;20360;-72
2022/09/29 06:04:17;;;;;;;9.25;8.05;;;;;;;13.43;100.00;97951.31;5006338;28;20046;-72
2022/09/29 06:06:43;;;;;;;13.15;9.35;;;;;;;13.08;100.00;97949.75;5009503;28;20033;-71
2022/09/29 06:09:08;;;;;;;17.02;10.27;;;;;;;13.32;100.00;97953.72;4999952;28;20486;-71
2022/09/29 06:11:34;;;;;;;15.75;10.15;;;;;;;13.42;100.00;97956.84;5002758;28;20470;-70
2022/09/29 06:14:01;;;;;;;16.08;11.18;;;;;;;13.56;100.00;97968.28;5001832;28;20445;-72
2022/09/29 06:16:29;;;;;;;17.02;11.25;;;;;;;13.64;100.00;97962.81;5005922;28;20053;-72
2022/09/29 06:18:55;;;;;;;19.17;12.48;;;;;;;13.67;100.00;97962.38;5005179;28;20033;-72
2022/09/29 06:21:23;;;;;;;15.20;12.10;;;;;;;13.72;100.00;97957.34;5005064;28;20030;-71
2022/09/29 06:23:49;;;;;;;14.88;12.18;;;;;;;13.78;100.00;97959.19;4999839;28;20026;-70
2022/09/29 06:26:17;;;;;;;17.13;12.23;;;;;;;13.79;100.00;97956.31;5002795;28;20030;-71
2022/09/29 06:28:43;;;;;;;19.10;12.60;;;;;;;13.88;100.00;97948.97;5002924;28;20467;-71
2022/09/29 06:31:15;;;;;;;17.98;12.60;;;;;;;13.88;100.00;97946.34;5004013;28;20044;-71
2022/09/29 06:33:41;;;;;;;15.35;10.95;;;;;;;13.96;100.00;97930.19;4999702;28;20056;-71
2022/09/29 06:39:05;;;;;;;16.33;11.90;;;;;;;14.12;100.00;97927.16;5002573;28;20441;-71
2022/09/29 06:41:31;;;;;;;15.95;11.52;;;;;;;14.22;100.00;97935.53;5008441;28;20073;-71
2022/09/29 06:43:56;;;;;;;19.95;12.48;;;;;;;14.29;100.00;97941.66;5006679;28;20109;-72
2022/09/29 06:46:22;;;;;;;16.95;12.77;;;;;;;14.35;100.00;97951.44;5003622;28;20109;-72
2022/09/29 06:48:48;;;;;;;18.40;11.98;;;;;;;14.33;100.00;97958.78;5002406;28;20042;-72
2022/09/29 06:51:14;;;;;;;22.98;11.40;;;;;;;14.24;100.00;97965.31;5001985;28;20033;-71
2022/09/29 06:53:39;;;;;;;16.65;11.68;;;;;;;14.14;100.00;97954.28;5004687;28;20506;-71
2022/09/29 06:56:06;;;;;;;16.23;11.02;;;;;;;14.17;100.00;97958.38;5000846;28;20822;-70
2022/09/29 06:58:31;;;;;;;17.90;11.00;;;;;;;13.93;100.00;97962.44;5001220;28;20042;-71
2022/09/29 07:01:01;;;;;;;19.33;12.65;;;;;;;13.93;100.00;97957.97;5000615;28;20049;-71
2022/09/29 07:03:29;;;;;;;16.73;11.60;;;;;;;13.90;100.00;97965.53;5001390;28;20045;-71
2022/09/29 07:05:55;;;;;;;19.73;11.63;;;;;;;13.97;100.00;97966.31;5004105;28;20037;-71
2022/09/29 07:08:20;;;;;;;19.10;12.68;;;;;;;13.99;100.00;97966.13;5004363;28;20031;-71
2022/09/29 07:10:47;;;;;;;19.42;11.80;;;;;;;14.07;100.00;97969.41;5003329;28;20034;-71
2022/09/29 07:13:12;;;;;;;19.48;12.23;;;;;;;14.18;100.00;97971.44;5002057;28;20074;-71
2022/09/29 07:15:38;;;;;;;19.42;12.85;;;;;;;14.24;100.00;97983.91;5002016;28;20108;-71
2022/09/29 07:18:03;;;;;;;16.88;13.25;;;;;;;14.28;100.00;97982.47;5006475;28;20049;-71
2022/09/29 07:20:30;;;;;;;17.70;13.80;;;;;;;14.33;100.00;97980.00;5007276;28;20041;-71
2022/09/29 07:22:56;;;;;;;21.45;13.70;;;;;;;14.35;100.00;97977.97;5006222;28;20038;-71
2022/09/29 07:25:23;;;;;;;25.63;13.18;;;;;;;14.27;100.00;97980.81;5002854;28;20076;-71
2022/09/29 07:27:50;;;;;;;22.60;14.18;;;;;;;14.26;100.00;97984.50;5008802;28;20045;-72
2022/09/29 07:30:16;;;;;;;23.58;14.07;;;;;;;14.26;100.00;97984.50;5006519;28;20360;-71
2022/09/29 07:32:42;;;;;;;25.00;14.40;;;;;;;14.27;100.00;97980.81;5003324;28;20029;-72
2022/09/29 07:35:09;;;;;;;20.92;14.18;;;;;;;14.29;100.00;97984.09;5000734;28;20034;-71
2022/09/29 07:37:35;;;;;;;21.10;15.52;;;;;;;14.33;100.00;97990.63;5003583;28;20034;-72
2022/09/29 07:40:00;;;;;;;22.00;16.15;;;;;;;14.38;100.00;97991.88;4985186;28;20092;-70
2022/09/29 07:42:29;;;;;;;26.60;15.98;;;;;;;14.25;100.00;97988.19;5007160;28;20096;-71
2022/09/29 07:44:55;;;;;;;22.73;15.75;;;;;;;14.16;100.00;98000.00;5007349;28;20030;-71
2022/09/29 07:47:20;;;;;;;27.25;15.57;;;;;;;14.16;100.00;98000.00;5009391;28;20405;-71
2022/09/29 07:49:47;;;;;;;25.65;16.30;;;;;;;14.21;100.00;97989.59;5006857;28;20030;-69
2022/09/29 07:52:13;;;;;;;23.05;15.73;;;;;;;14.26;100.00;97995.09;5008989;28;20048;-71
2022/09/29 07:54:40;;;;;;;23.40;16.60;;;;;;;14.30;100.00;97993.69;5007752;28;20040;-69
2022/09/29 07:57:05;;;;;;;24.38;16.85;;;;;;;14.14;100.00;97994.06;5004220;28;20117;-70
2022/09/29 07:59:32;;;;;;;21.90;15.73;;;;;;;14.18;100.00;98003.28;4986159;28;20066;-70
2022/09/29 08:01:57;;;;;;;30.73;16.70;;;;;;;14.15;100.00;98003.66;5009429;28;20113;-71
2022/09/29 08:04:23;;;;;;;23.83;16.60;;;;;;;14.15;100.00;98002.84;5003775;28;20041;-70
2022/09/29 08:06:49;;;;;;;18.55;14.82;;;;;;;14.18;100.00;98000.63;5006464;28;21078;-68
2022/09/29 08:09:15;;;;;;;23.02;15.73;;;;;;;14.40;100.00;98000.44;5006302;28;20122;-71
2022/09/29 08:11:42;;;;;;;25.73;16.70;;;;;;;14.57;100.00;98001.66;5006199;28;20058;-70
2022/09/29 08:14:08;;;;;;;28.80;16.02;;;;;;;14.53;100.00;98005.75;5005027;28;20053;-71
2022/09/29 08:16:35;;;;;;;21.58;15.95;;;;;;;14.33;100.00;98005.72;5008144;28;20029;-72
2022/09/29 08:19:01;;;;;;;23.05;15.60;;;;;;;14.40;100.00;98008.41;5006033;28;20449;-70
2022/09/29 08:21:28;;;;;;;28.05;16.45;;;;;;;14.57;100.00;98018.41;5006605;28;20038;-70
2022/09/29 08:23:54;;;;;;;18.65;15.45;;;;;;;14.69;100.00;98015.94;5007709;28;20113;-71
2022/09/29 08:26:21;;;;;;;24.15;17.30;;;;;;;14.77;100.00;98023.72;5003072;28;20113;-72
2022/09/29 08:28:47;;;;;;;23.88;16.35;;;;;;;14.83;100.00;98022.06;5003606;28;20052;-70
2022/09/29 08:31:19;;;;;;;25.10;18.00;;;;;;;14.68;100.00;98024.94;5009398;28;20490;-72
2022/09/29 08:33:48;;;;;;;25.48;18.35;;;;;;;14.74;100.00;98021.44;5007246;28;20034;-70
2022/09/29 08:36:15;;;;;;;26.55;18.75;;;;;;;14.82;100.00;98015.94;5006172;28;20358;-70
2022/09/29 08:38:51;;;;;;;24.95;17.98;;;;;;;14.89;100.00;98010.63;4999899;28;20029;-72
2022/09/29 08:41:46;;;;;;;27.98;18.58;;;;;;;14.84;100.00;98008.59;5005021;28;20475;-72
2022/09/29 08:44:38;;;;;;;24.83;17.98;;;;;;;14.97;100.00;98005.88;5001412;28;20502;-71
2022/09/29 08:47:23;;;;;;;22.65;17.05;;;;;;;15.09;100.00;98000.75;5005674;28;20048;-72
2022/09/29 08:50:01;;;;;;;23.13;18.58;;;;;;;15.18;100.00;98004.00;5006294;28;20041;-70
2022/09/29 08:52:35;;;;;;;27.25;18.70;;;;;;;15.29;100.00;98006.81;5004819;28;20080;-72
2022/09/29 08:55:06;;;;;;;27.48;18.45;;;;;;;15.43;100.00;98011.03;5015035;28;20042;-72
2022/09/29 08:57:33;;;;;;;21.58;17.58;;;;;;;15.49;100.00;98009.41;5010341;28;20049;-71
2022/09/29 08:59:59;;;;;;;24.75;17.25;;;;;;;15.59;100.00;98017.78;5016553;28;20066;-72
2022/09/29 09:02:43;;;;;;;27.67;18.27;;;;;;;15.59;100.00;98016.94;5019361;28;20042;-70
2022/09/29 09:05:23;;;;;;;23.60;17.38;;;;;;;15.65;100.00;98008.94;5014253;28;20096;-70
2022/09/29 09:08:01;;;;;;;;;;;;;;;15.76;100.00;98018.09;5012457;28;20483;-70
2022/09/29 09:10:46;;;;;;;22.75;17.65;;;;;;;15.82;100.00;98018.06;5016850;28;19924;-70
2022/09/29 09:13:49;;;;;;;39.58;16.95;;;;;;;15.92;100.00;98015.75;5016396;28;20034;-68
2022/09/29 09:16:37;;;;;;;22.48;17.05;;;;;;;15.94;100.00;98008.38;5011637;28;20040;-71
2022/09/29 09:19:06;;;;;;;26.05;17.75;;;;;;;15.94;100.00;98000.38;4997201;28;20513;-70
2022/09/29 09:21:42;;;;;;;22.77;16.80;;;;;;;16.11;100.00;97997.19;5014910;28;20105;-70
2022/09/29 09:24:25;;;;;;;27.70;16.75;;;;;;;16.27;100.00;98000.16;5008659;28;20469;-70
2022/09/29 09:26:51;;;;;;;22.98;17.25;;;;;;;16.37;100.00;98010.31;5003475;28;20040;-69
2022/09/29 09:29:33;;;;;;;22.63;16.95;;;;;;;16.50;100.00;98004.06;5003397;28;20877;-71
2022/09/29 09:32:09;;;;;;;23.25;16.98;;;;;;;16.61;100.00;98006.84;5003044;28;20360;-70
2022/09/29 09:34:35;;;;;;;20.52;16.50;;;;;;;16.71;100.00;98004.53;5002815;28;20442;-69
2022/09/29 09:37:20;;;;;;;25.60;16.88;;;;;;;16.79;100.00;98009.56;4999935;28;20096;-71
2022/09/29 09:40:00;;;;;;;24.17;16.73;;;;;;;16.85;100.00;98004.41;4999049;28;20097;-70
2022/09/29 09:42:32;;;;;;;20.88;16.60;;;;;;;16.89;100.00;98003.72;5003375;28;20490;-71
2022/09/29 09:45:05;;;;;;;23.70;16.27;;;;;;;16.98;100.00;98004.25;4973951;28;20034;-72
2022/09/29 09:47:38;;;;;;;22.92;16.15;;;;;;;17.07;100.00;98005.59;5002411;28;20029;-72
2022/09/29 09:50:14;;;;;;;22.10;16.42;;;;;;;17.13;100.00;98005.53;5001813;28;20144;-72
2022/09/29 09:52:50;;;;;;;24.75;15.25;;;;;;;17.20;100.00;98006.25;5008242;28;20053;-73
2022/09/29 09:55:23;;;;;;;21.65;15.98;;;;;;;17.22;100.00;98002.56;4991859;28;20045;-72
2022/09/29 09:58:01;;;;;;;19.55;16.02;;;;;;;17.23;100.00;98005.00;5002849;28;20171;-72
2022/09/29 10:00:37;;;;;;;21.13;16.05;;;;;;;17.33;100.00;98004.47;5005336;28;20092;-73
2022/09/29 10:03:06;;;;;;;24.90;15.13;;;;;;;17.38;100.00;98005.44;5000196;28;20100;-73
2022/09/29 10:05:38;;;;;;;22.30;15.55;;;;;;;17.40;100.00;98005.22;5002201;28;20036;-73
2022/09/29 10:08:28;;;;;;;19.85;15.48;;;;;;;17.43;100.00;98000.25;5001808;28;20045;-72
2022/09/29 10:10:55;;;;;;;20.30;15.57;;;;;;;17.48;100.00;97997.72;5001268;28;20475;-72
2022/09/29 10:13:24;;;;;;;22.42;15.80;;;;;;;17.54;100.00;97991.50;5004712;28;20441;-72
2022/09/29 10:15:56;;;;;;;20.30;14.50;;;;;;;17.64;100.00;97995.50;5003382;28;20060;-71
2022/09/29 10:18:38;;;;;;;21.05;16.23;;;;;;;17.74;100.00;97985.09;5004648;28;20168;-73
2022/09/29 10:21:03;;;;;;;22.27;15.43;;;;;;;17.80;100.00;98000.19;5005100;28;20129;-72
2022/09/29 10:23:32;;;;;;;22.98;16.25;;;;;;;17.91;100.00;97996.75;5002712;28;20116;-72
2022/09/29 10:26:14;;;;;;;21.45;15.60;;;;;;;17.96;100.00;98000.41;5003216;28;20041;-72
2022/09/29 10:28:44;;;;;;;20.60;15.48;;;;;;;17.98;100.00;97992.16;4999468;28;20037;-73
2022/09/29 10:31:19;;;;;;;20.55;16.85;;;;;;;18.04;100.00;97988.56;5005416;28;20128;-72
2022/09/29 10:33:48;;;;;;;28.00;15.45;;;;;;;18.13;100.00;97987.22;5000661;28;20041;-72
2022/09/29 10:36:14;;;;;;;19.13;14.82;;;;;;;18.25;100.00;97977.38;5005036;28;20474;-72
2022/09/29 10:38:46;;;;;;;20.92;15.45;;;;;;;18.36;100.00;97968.56;5001111;28;20026;-72
2022/09/29 10:41:11;;;;;;;21.45;15.75;;;;;;;18.40;100.00;97964.38;4980899;28;20100;-73
2022/09/29 10:43:40;;;;;;;22.88;16.75;;;;;;;18.45;100.00;97957.50;5004377;28;20419;-72
2022/09/29 10:46:25;;;;;;;26.63;16.27;;;;;;;18.51;100.00;97964.59;5001965;28;20029;-72
2022/09/29 10:49:22;;;;;;;20.23;16.15;;;;;;;18.51;100.00;97961.94;5001199;28;20120;-73
2022/09/29 10:51:56;;;;;;;23.17;16.33;;;;;;;18.49;100.00;97956.84;5004190;28;20377;-72
2022/09/29 10:54:26;;;;;;;23.48;17.27;;;;;;;18.46;100.00;97945.78;5007130;28;20038;-72
2022/09/29 10:56:54;;;;;;;34.78;17.45;;;;;;;18.50;100.00;97947.75;4994862;28;20113;-73
2022/09/29 10:59:20;;;;;;;23.15;15.13;;;;;;;18.55;100.00;97939.09;5005709;28;20113;-72
2022/09/29 11:01:50;;;;;;;19.20;15.90;;;;;;;18.62;100.00;97937.09;5010402;28;20482;-70
2022/09/29 11:04:26;;;;;;;23.98;16.25;;;;;;;18.74;100.00;97944.06;5007648;28;20049;-71
2022/09/29 11:06:52;;;;;;;19.30;15.68;;;;;;;18.81;100.00;97949.28;5010133;28;20029;-73
2022/09/29 11:09:20;;;;;;;24.83;16.38;;;;;;;18.88;100.00;97946.50;5012005;28;20026;-72
2022/09/29 11:11:46;;;;;;;24.73;17.30;;;;;;;18.92;100.00;97951.13;5010502;28;20456;-71
2022/09/29 11:14:24;;;;;;;21.30;15.90;;;;;;;19.05;100.00;97945.53;4988473;28;20440;-73
2022/09/29 11:16:59;;;;;;;24.40;15.48;;;;;;;19.18;100.00;97945.28;5006728;28;20034;-72
2022/09/29 11:19:25;;;;;;;20.42;14.88;;;;;;;19.28;100.00;97943.84;5008233;28;20066;-72
2022/09/29 11:22:09;;;;;;;23.88;15.65;;;;;;;19.35;100.00;97941.84;5013758;28;20030;-72
2022/09/29 11:24:59;;;;;;;18.27;14.82;;;;;;;19.41;100.00;97940.91;5006960;28;20046;-72
2022/09/29 11:27:43;;;;;;;22.10;14.55;;;;;;;19.52;100.00;97934.72;5010063;28;20049;-72
2022/09/29 11:30:18;;;;;;;19.48;14.43;;;;;;;19.58;100.00;97939.13;5003453;28;20101;-73
2022/09/29 11:33:11;;;;;;;20.05;14.57;;;;;;;19.64;100.00;97932.81;5008421;28;20449;-73